sensor_id;sensor_type;location;lat;lon;timestamp;P1;durP1;ratioP1;P2;durP2;ratioP2
22634;SDS011;11484;50.858;4.384;2023-09-07T00:00:14;9.48;;;5.28;;
22634;SDS011;11484;50.858;4.384;2023-09-07T00:02:40;8.40;;;5.07;;
22634;SDS011;11484;50.858;4.384;2023-09-07T00:05:06;10.07;;;5.40;;
22634;SDS011;11484;50.858;4.384;2023-09-07T00:07:32;9.30;;;5.82;;
22634;SDS011;11484;50.858;4.384;2023-09-07T00:09:59;8.90;;;5.68;;
22634;SDS011;11484;50.858;4.384;2023-09-07T00:12:25;8.10;;;5.05;;
22634;SDS011;11484;50.858;4.384;2023-09-07T00:14:52;6.95;;;5.10;;
22634;SDS011;11484;50.858;4.384;2023-09-07T00:17:19;8.80;;;4.88;;
22634;SDS011;11484;50.858;4.384;2023-09-07T00:19:45;7.80;;;5.00;;
22634;SDS011;11484;50.858;4.384;2023-09-07T00:22:13;7.47;;;5.10;;
22634;SDS011;11484;50.858;4.384;2023-09-07T00:24:39;7.78;;;5.18;;
22634;SDS011;11484;50.858;4.384;2023-09-07T00:27:04;7.88;;;4.75;;
22634;SDS011;11484;50.858;4.384;2023-09-07T00:29:32;8.02;;;4.85;;
22634;SDS011;11484;50.858;4.384;2023-09-07T00:31:59;6.75;;;4.97;;
22634;SDS011;11484;50.858;4.384;2023-09-07T00:34:25;7.32;;;5.38;;
22634;SDS011;11484;50.858;4.384;2023-09-07T00:36:51;7.30;;;4.78;;
22634;SDS011;11484;50.858;4.384;2023-09-07T00:39:16;5.82;;;5.18;;
22634;SDS011;11484;50.858;4.384;2023-09-07T00:41:42;6.43;;;4.68;;
22634;SDS011;11484;50.858;4.384;2023-09-07T00:44:07;8.52;;;5.03;;
22634;SDS011;11484;50.858;4.384;2023-09-07T00:46:33;7.72;;;5.38;;
22634;SDS011;11484;50.858;4.384;2023-09-07T00:48:59;6.78;;;4.70;;
22634;SDS011;11484;50.858;4.384;2023-09-07T00:51:25;7.95;;;4.45;;
22634;SDS011;11484;50.858;4.384;2023-09-07T00:53:51;8.52;;;4.95;;
22634;SDS011;11484;50.858;4.384;2023-09-07T00:56:18;5.63;;;3.83;;
22634;SDS011;11484;50.858;4.384;2023-09-07T00:58:44;6.88;;;4.50;;
22634;SDS011;11484;50.858;4.384;2023-09-07T01:01:10;5.82;;;3.92;;
22634;SDS011;11484;50.858;4.384;2023-09-07T01:03:35;5.43;;;3.70;;
22634;SDS011;11484;50.858;4.384;2023-09-07T01:06:03;6.43;;;3.80;;
22634;SDS011;11484;50.858;4.384;2023-09-07T01:08:46;6.15;;;4.10;;
22634;SDS011;11484;50.858;4.384;2023-09-07T01:11:18;5.82;;;3.75;;
22634;SDS011;11484;50.858;4.384;2023-09-07T01:13:51;6.60;;;3.72;;
22634;SDS011;11484;50.858;4.384;2023-09-07T01:16:19;5.63;;;4.15;;
22634;SDS011;11484;50.858;4.384;2023-09-07T01:18:46;4.90;;;3.47;;
22634;SDS011;11484;50.858;4.384;2023-09-07T01:21:12;5.53;;;3.83;;
22634;SDS011;11484;50.858;4.384;2023-09-07T01:23:40;5.10;;;4.05;;
22634;SDS011;11484;50.858;4.384;2023-09-07T01:26:07;6.20;;;4.63;;
22634;SDS011;11484;50.858;4.384;2023-09-07T01:28:34;7.45;;;4.65;;
22634;SDS011;11484;50.858;4.384;2023-09-07T01:31:00;6.18;;;4.13;;
22634;SDS011;11484;50.858;4.384;2023-09-07T01:33:26;5.57;;;3.92;;
22634;SDS011;11484;50.858;4.384;2023-09-07T01:35:52;6.25;;;4.18;;
22634;SDS011;11484;50.858;4.384;2023-09-07T01:38:18;5.40;;;3.90;;
22634;SDS011;11484;50.858;4.384;2023-09-07T01:40:43;6.13;;;3.83;;
22634;SDS011;11484;50.858;4.384;2023-09-07T01:43:09;6.88;;;4.57;;
22634;SDS011;11484;50.858;4.384;2023-09-07T01:45:35;5.90;;;4.47;;
22634;SDS011;11484;50.858;4.384;2023-09-07T01:48:01;33.03;;;26.98;;
22634;SDS011;11484;50.858;4.384;2023-09-07T01:50:28;9.32;;;6.10;;
22634;SDS011;11484;50.858;4.384;2023-09-07T01:52:54;16.83;;;11.95;;
22634;SDS011;11484;50.858;4.384;2023-09-07T01:55:19;96.43;;;73.55;;
22634;SDS011;11484;50.858;4.384;2023-09-07T01:57:45;109.97;;;85.80;;
22634;SDS011;11484;50.858;4.384;2023-09-07T02:00:11;188.60;;;168.57;;
22634;SDS011;11484;50.858;4.384;2023-09-07T02:02:37;77.55;;;69.07;;
22634;SDS011;11484;50.858;4.384;2023-09-07T02:05:03;117.88;;;102.47;;
22634;SDS011;11484;50.858;4.384;2023-09-07T02:07:29;80.38;;;67.70;;
22634;SDS011;11484;50.858;4.384;2023-09-07T02:09:55;68.20;;;53.03;;
22634;SDS011;11484;50.858;4.384;2023-09-07T02:12:20;56.28;;;30.30;;
22634;SDS011;11484;50.858;4.384;2023-09-07T02:14:46;19.52;;;9.73;;
22634;SDS011;11484;50.858;4.384;2023-09-07T02:17:12;17.73;;;9.18;;
22634;SDS011;11484;50.858;4.384;2023-09-07T02:19:42;6.60;;;4.70;;
22634;SDS011;11484;50.858;4.384;2023-09-07T02:22:08;5.60;;;4.10;;
22634;SDS011;11484;50.858;4.384;2023-09-07T02:24:34;5.88;;;4.03;;
22634;SDS011;11484;50.858;4.384;2023-09-07T02:27:00;6.63;;;4.00;;
22634;SDS011;11484;50.858;4.384;2023-09-07T02:29:26;8.40;;;5.00;;
22634;SDS011;11484;50.858;4.384;2023-09-07T02:31:51;5.53;;;3.67;;
22634;SDS011;11484;50.858;4.384;2023-09-07T02:34:17;9.30;;;4.45;;
22634;SDS011;11484;50.858;4.384;2023-09-07T02:36:43;8.82;;;4.95;;
22634;SDS011;11484;50.858;4.384;2023-09-07T02:39:09;6.43;;;5.25;;
22634;SDS011;11484;50.858;4.384;2023-09-07T02:41:36;7.00;;;4.82;;
22634;SDS011;11484;50.858;4.384;2023-09-07T02:44:03;7.65;;;4.53;;
22634;SDS011;11484;50.858;4.384;2023-09-07T02:46:29;8.43;;;6.43;;
22634;SDS011;11484;50.858;4.384;2023-09-07T02:48:56;7.38;;;5.30;;
22634;SDS011;11484;50.858;4.384;2023-09-07T02:51:23;5.88;;;4.40;;
22634;SDS011;11484;50.858;4.384;2023-09-07T02:53:49;5.72;;;4.30;;
22634;SDS011;11484;50.858;4.384;2023-09-07T02:56:15;6.43;;;4.60;;
22634;SDS011;11484;50.858;4.384;2023-09-07T02:58:41;7.95;;;5.00;;
22634;SDS011;11484;50.858;4.384;2023-09-07T03:01:07;7.38;;;4.63;;
22634;SDS011;11484;50.858;4.384;2023-09-07T03:03:35;6.47;;;4.05;;
22634;SDS011;11484;50.858;4.384;2023-09-07T03:06:11;6.50;;;4.50;;
22634;SDS011;11484;50.858;4.384;2023-09-07T03:08:42;7.00;;;5.13;;
22634;SDS011;11484;50.858;4.384;2023-09-07T03:11:08;7.45;;;4.53;;
22634;SDS011;11484;50.858;4.384;2023-09-07T03:13:34;6.13;;;4.18;;
22634;SDS011;11484;50.858;4.384;2023-09-07T03:16:00;5.80;;;4.18;;
22634;SDS011;11484;50.858;4.384;2023-09-07T03:18:27;8.98;;;4.40;;
22634;SDS011;11484;50.858;4.384;2023-09-07T03:20:54;6.75;;;4.35;;
22634;SDS011;11484;50.858;4.384;2023-09-07T03:23:21;9.43;;;4.70;;
22634;SDS011;11484;50.858;4.384;2023-09-07T03:25:47;8.27;;;4.70;;
22634;SDS011;11484;50.858;4.384;2023-09-07T03:28:13;7.57;;;4.65;;
22634;SDS011;11484;50.858;4.384;2023-09-07T03:30:39;5.82;;;4.40;;
22634;SDS011;11484;50.858;4.384;2023-09-07T03:33:05;5.60;;;4.35;;
22634;SDS011;11484;50.858;4.384;2023-09-07T03:35:31;7.53;;;4.95;;
22634;SDS011;11484;50.858;4.384;2023-09-07T03:37:57;8.27;;;4.93;;
22634;SDS011;11484;50.858;4.384;2023-09-07T03:40:23;8.15;;;4.88;;
22634;SDS011;11484;50.858;4.384;2023-09-07T03:42:49;7.00;;;5.05;;
22634;SDS011;11484;50.858;4.384;2023-09-07T03:45:15;9.00;;;5.45;;
22634;SDS011;11484;50.858;4.384;2023-09-07T03:47:41;8.93;;;5.18;;
22634;SDS011;11484;50.858;4.384;2023-09-07T03:50:07;7.15;;;4.47;;
22634;SDS011;11484;50.858;4.384;2023-09-07T03:52:34;8.10;;;4.57;;
22634;SDS011;11484;50.858;4.384;2023-09-07T03:55:00;9.07;;;4.45;;
22634;SDS011;11484;50.858;4.384;2023-09-07T03:57:26;6.32;;;5.00;;
22634;SDS011;11484;50.858;4.384;2023-09-07T03:59:52;6.95;;;5.03;;
22634;SDS011;11484;50.858;4.384;2023-09-07T04:02:20;6.38;;;5.03;;
22634;SDS011;11484;50.858;4.384;2023-09-07T04:04:50;6.80;;;4.93;;
22634;SDS011;11484;50.858;4.384;2023-09-07T04:07:16;7.82;;;5.22;;
22634;SDS011;11484;50.858;4.384;2023-09-07T04:09:42;6.63;;;5.10;;
22634;SDS011;11484;50.858;4.384;2023-09-07T04:12:09;8.55;;;5.05;;
22634;SDS011;11484;50.858;4.384;2023-09-07T04:14:35;7.05;;;5.35;;
22634;SDS011;11484;50.858;4.384;2023-09-07T04:17:00;8.48;;;5.68;;
22634;SDS011;11484;50.858;4.384;2023-09-07T04:19:26;8.05;;;5.38;;
22634;SDS011;11484;50.858;4.384;2023-09-07T04:21:52;10.23;;;5.55;;
22634;SDS011;11484;50.858;4.384;2023-09-07T04:24:18;8.40;;;5.30;;
22634;SDS011;11484;50.858;4.384;2023-09-07T04:26:43;7.95;;;5.63;;
22634;SDS011;11484;50.858;4.384;2023-09-07T04:29:09;7.32;;;5.18;;
22634;SDS011;11484;50.858;4.384;2023-09-07T04:31:36;8.32;;;5.30;;
22634;SDS011;11484;50.858;4.384;2023-09-07T04:34:02;9.70;;;6.38;;
22634;SDS011;11484;50.858;4.384;2023-09-07T04:36:28;6.28;;;5.43;;
22634;SDS011;11484;50.858;4.384;2023-09-07T04:38:54;8.65;;;5.80;;
22634;SDS011;11484;50.858;4.384;2023-09-07T04:41:20;8.50;;;5.50;;
22634;SDS011;11484;50.858;4.384;2023-09-07T04:43:45;7.38;;;5.85;;
22634;SDS011;11484;50.858;4.384;2023-09-07T04:46:12;11.10;;;6.72;;
22634;SDS011;11484;50.858;4.384;2023-09-07T04:48:38;10.02;;;6.50;;
22634;SDS011;11484;50.858;4.384;2023-09-07T04:51:06;12.82;;;7.57;;
22634;SDS011;11484;50.858;4.384;2023-09-07T04:53:35;11.75;;;6.25;;
22634;SDS011;11484;50.858;4.384;2023-09-07T04:56:02;9.93;;;6.85;;
22634;SDS011;11484;50.858;4.384;2023-09-07T04:58:28;7.68;;;6.18;;
22634;SDS011;11484;50.858;4.384;2023-09-07T05:01:00;9.70;;;6.65;;
22634;SDS011;11484;50.858;4.384;2023-09-07T05:03:35;8.48;;;6.43;;
22634;SDS011;11484;50.858;4.384;2023-09-07T05:06:01;10.93;;;6.57;;
22634;SDS011;11484;50.858;4.384;2023-09-07T05:08:29;10.45;;;6.65;;
22634;SDS011;11484;50.858;4.384;2023-09-07T05:10:56;10.95;;;6.80;;
22634;SDS011;11484;50.858;4.384;2023-09-07T05:13:27;12.05;;;6.60;;
22634;SDS011;11484;50.858;4.384;2023-09-07T05:15:53;13.75;;;7.22;;
22634;SDS011;11484;50.858;4.384;2023-09-07T05:18:20;12.43;;;6.65;;
22634;SDS011;11484;50.858;4.384;2023-09-07T05:20:46;12.13;;;6.38;;
22634;SDS011;11484;50.858;4.384;2023-09-07T05:23:18;11.82;;;7.15;;
22634;SDS011;11484;50.858;4.384;2023-09-07T05:25:49;12.02;;;7.13;;
22634;SDS011;11484;50.858;4.384;2023-09-07T05:28:20;9.70;;;6.00;;
22634;SDS011;11484;50.858;4.384;2023-09-07T05:30:47;11.20;;;7.32;;
22634;SDS011;11484;50.858;4.384;2023-09-07T05:33:13;11.05;;;7.53;;
22634;SDS011;11484;50.858;4.384;2023-09-07T05:35:40;12.88;;;7.53;;
22634;SDS011;11484;50.858;4.384;2023-09-07T05:38:07;12.48;;;6.88;;
22634;SDS011;11484;50.858;4.384;2023-09-07T05:40:33;10.00;;;6.80;;
22634;SDS011;11484;50.858;4.384;2023-09-07T05:43:00;11.07;;;6.40;;
22634;SDS011;11484;50.858;4.384;2023-09-07T05:45:25;10.70;;;6.90;;
22634;SDS011;11484;50.858;4.384;2023-09-07T05:47:51;9.55;;;7.10;;
22634;SDS011;11484;50.858;4.384;2023-09-07T05:50:18;12.45;;;6.93;;
22634;SDS011;11484;50.858;4.384;2023-09-07T05:52:43;10.48;;;6.68;;
22634;SDS011;11484;50.858;4.384;2023-09-07T05:55:09;11.77;;;6.85;;
22634;SDS011;11484;50.858;4.384;2023-09-07T05:57:35;9.02;;;7.07;;
22634;SDS011;11484;50.858;4.384;2023-09-07T06:00:01;10.65;;;6.93;;
22634;SDS011;11484;50.858;4.384;2023-09-07T06:02:27;12.43;;;7.18;;
22634;SDS011;11484;50.858;4.384;2023-09-07T06:04:53;9.05;;;6.93;;
22634;SDS011;11484;50.858;4.384;2023-09-07T06:07:19;9.65;;;6.97;;
22634;SDS011;11484;50.858;4.384;2023-09-07T06:09:45;9.98;;;6.95;;
22634;SDS011;11484;50.858;4.384;2023-09-07T06:12:10;9.85;;;6.68;;
22634;SDS011;11484;50.858;4.384;2023-09-07T06:14:37;11.88;;;6.57;;
22634;SDS011;11484;50.858;4.384;2023-09-07T06:17:03;12.32;;;6.72;;
22634;SDS011;11484;50.858;4.384;2023-09-07T06:19:29;10.73;;;6.82;;
22634;SDS011;11484;50.858;4.384;2023-09-07T06:21:58;9.82;;;6.72;;
22634;SDS011;11484;50.858;4.384;2023-09-07T06:24:23;10.40;;;7.18;;
22634;SDS011;11484;50.858;4.384;2023-09-07T06:26:49;8.65;;;6.35;;
22634;SDS011;11484;50.858;4.384;2023-09-07T06:29:15;7.75;;;5.68;;
22634;SDS011;11484;50.858;4.384;2023-09-07T06:31:40;9.00;;;5.60;;
22634;SDS011;11484;50.858;4.384;2023-09-07T06:34:06;17.50;;;8.00;;
22634;SDS011;11484;50.858;4.384;2023-09-07T06:36:32;11.70;;;5.60;;
22634;SDS011;11484;50.858;4.384;2023-09-07T06:38:57;12.07;;;6.57;;
22634;SDS011;11484;50.858;4.384;2023-09-07T06:41:24;8.15;;;6.00;;
22634;SDS011;11484;50.858;4.384;2023-09-07T06:43:50;10.48;;;6.05;;
22634;SDS011;11484;50.858;4.384;2023-09-07T06:46:15;9.43;;;6.10;;
22634;SDS011;11484;50.858;4.384;2023-09-07T06:48:41;15.48;;;6.75;;
22634;SDS011;11484;50.858;4.384;2023-09-07T06:51:07;8.65;;;5.57;;
22634;SDS011;11484;50.858;4.384;2023-09-07T06:53:34;8.77;;;5.90;;
22634;SDS011;11484;50.858;4.384;2023-09-07T06:56:01;8.32;;;5.30;;
22634;SDS011;11484;50.858;4.384;2023-09-07T06:58:28;7.78;;;5.28;;
22634;SDS011;11484;50.858;4.384;2023-09-07T07:00:58;7.57;;;5.47;;
22634;SDS011;11484;50.858;4.384;2023-09-07T07:03:28;11.02;;;5.72;;
22634;SDS011;11484;50.858;4.384;2023-09-07T07:05:54;7.28;;;4.82;;
22634;SDS011;11484;50.858;4.384;2023-09-07T07:08:20;7.80;;;5.07;;
22634;SDS011;11484;50.858;4.384;2023-09-07T07:10:46;10.82;;;5.32;;
22634;SDS011;11484;50.858;4.384;2023-09-07T07:13:19;9.68;;;5.57;;
22634;SDS011;11484;50.858;4.384;2023-09-07T07:15:44;7.95;;;5.20;;
22634;SDS011;11484;50.858;4.384;2023-09-07T07:18:10;9.93;;;4.72;;
22634;SDS011;11484;50.858;4.384;2023-09-07T07:20:39;6.93;;;5.00;;
22634;SDS011;11484;50.858;4.384;2023-09-07T07:23:07;9.27;;;4.80;;
22634;SDS011;11484;50.858;4.384;2023-09-07T07:25:33;7.38;;;4.28;;
22634;SDS011;11484;50.858;4.384;2023-09-07T07:27:59;11.57;;;4.78;;
22634;SDS011;11484;50.858;4.384;2023-09-07T07:30:29;7.97;;;4.50;;
22634;SDS011;11484;50.858;4.384;2023-09-07T07:32:55;6.32;;;4.32;;
22634;SDS011;11484;50.858;4.384;2023-09-07T07:35:21;5.63;;;4.18;;
22634;SDS011;11484;50.858;4.384;2023-09-07T07:37:48;5.75;;;4.50;;
22634;SDS011;11484;50.858;4.384;2023-09-07T07:40:14;5.85;;;4.30;;
22634;SDS011;11484;50.858;4.384;2023-09-07T07:42:40;8.65;;;4.28;;
22634;SDS011;11484;50.858;4.384;2023-09-07T07:45:08;6.93;;;3.90;;
22634;SDS011;11484;50.858;4.384;2023-09-07T07:47:34;6.75;;;4.40;;
22634;SDS011;11484;50.858;4.384;2023-09-07T07:50:00;4.82;;;3.63;;
22634;SDS011;11484;50.858;4.384;2023-09-07T07:52:26;5.80;;;3.60;;
22634;SDS011;11484;50.858;4.384;2023-09-07T07:54:52;4.80;;;3.97;;
22634;SDS011;11484;50.858;4.384;2023-09-07T07:57:18;7.28;;;4.10;;
22634;SDS011;11484;50.858;4.384;2023-09-07T07:59:44;5.00;;;3.70;;
22634;SDS011;11484;50.858;4.384;2023-09-07T08:02:10;6.88;;;4.25;;
22634;SDS011;11484;50.858;4.384;2023-09-07T08:04:36;4.75;;;3.72;;
22634;SDS011;11484;50.858;4.384;2023-09-07T08:07:01;5.40;;;3.72;;
22634;SDS011;11484;50.858;4.384;2023-09-07T08:09:32;6.60;;;4.30;;
22634;SDS011;11484;50.858;4.384;2023-09-07T08:11:59;5.78;;;4.10;;
22634;SDS011;11484;50.858;4.384;2023-09-07T08:14:28;5.15;;;3.90;;
22634;SDS011;11484;50.858;4.384;2023-09-07T08:16:56;5.43;;;3.78;;
22634;SDS011;11484;50.858;4.384;2023-09-07T08:19:22;6.55;;;3.63;;
22634;SDS011;11484;50.858;4.384;2023-09-07T08:21:48;5.47;;;3.63;;
22634;SDS011;11484;50.858;4.384;2023-09-07T08:24:14;5.05;;;4.03;;
22634;SDS011;11484;50.858;4.384;2023-09-07T08:26:40;6.82;;;4.13;;
22634;SDS011;11484;50.858;4.384;2023-09-07T08:29:06;6.05;;;3.80;;
22634;SDS011;11484;50.858;4.384;2023-09-07T08:31:34;5.03;;;3.42;;
22634;SDS011;11484;50.858;4.384;2023-09-07T08:34:05;5.90;;;4.57;;
22634;SDS011;11484;50.858;4.384;2023-09-07T08:36:32;4.65;;;3.63;;
22634;SDS011;11484;50.858;4.384;2023-09-07T08:38:59;4.93;;;3.70;;
22634;SDS011;11484;50.858;4.384;2023-09-07T08:41:34;6.38;;;3.38;;
22634;SDS011;11484;50.858;4.384;2023-09-07T08:44:07;5.43;;;3.42;;
22634;SDS011;11484;50.858;4.384;2023-09-07T08:46:34;8.27;;;3.83;;
22634;SDS011;11484;50.858;4.384;2023-09-07T08:49:01;6.70;;;3.85;;
22634;SDS011;11484;50.858;4.384;2023-09-07T08:51:29;6.68;;;3.58;;
22634;SDS011;11484;50.858;4.384;2023-09-07T08:53:56;5.05;;;3.50;;
22634;SDS011;11484;50.858;4.384;2023-09-07T08:56:25;7.82;;;3.92;;
22634;SDS011;11484;50.858;4.384;2023-09-07T08:58:51;8.25;;;3.63;;
22634;SDS011;11484;50.858;4.384;2023-09-07T09:01:17;5.20;;;3.40;;
22634;SDS011;11484;50.858;4.384;2023-09-07T09:03:43;4.65;;;3.30;;
22634;SDS011;11484;50.858;4.384;2023-09-07T09:06:10;4.15;;;3.47;;
22634;SDS011;11484;50.858;4.384;2023-09-07T09:08:43;5.35;;;3.28;;
22634;SDS011;11484;50.858;4.384;2023-09-07T09:11:10;5.05;;;3.70;;
22634;SDS011;11484;50.858;4.384;2023-09-07T09:13:36;5.18;;;4.07;;
22634;SDS011;11484;50.858;4.384;2023-09-07T09:16:05;6.40;;;3.60;;
22634;SDS011;11484;50.858;4.384;2023-09-07T09:18:31;6.22;;;3.42;;
22634;SDS011;11484;50.858;4.384;2023-09-07T09:20:57;4.32;;;3.72;;
22634;SDS011;11484;50.858;4.384;2023-09-07T09:23:29;4.97;;;3.28;;
22634;SDS011;11484;50.858;4.384;2023-09-07T09:25:59;5.13;;;3.05;;
22634;SDS011;11484;50.858;4.384;2023-09-07T09:28:26;4.63;;;3.17;;
22634;SDS011;11484;50.858;4.384;2023-09-07T09:30:56;4.55;;;3.53;;
22634;SDS011;11484;50.858;4.384;2023-09-07T09:33:23;4.55;;;3.60;;
22634;SDS011;11484;50.858;4.384;2023-09-07T09:35:50;7.55;;;3.88;;
22634;SDS011;11484;50.858;4.384;2023-09-07T09:38:17;4.95;;;3.13;;
22634;SDS011;11484;50.858;4.384;2023-09-07T09:40:45;4.40;;;3.05;;
22634;SDS011;11484;50.858;4.384;2023-09-07T09:43:13;3.90;;;3.22;;
22634;SDS011;11484;50.858;4.384;2023-09-07T09:45:39;5.45;;;3.50;;
22634;SDS011;11484;50.858;4.384;2023-09-07T09:48:12;5.13;;;3.25;;
22634;SDS011;11484;50.858;4.384;2023-09-07T09:50:40;5.10;;;3.10;;
22634;SDS011;11484;50.858;4.384;2023-09-07T09:53:08;4.15;;;3.17;;
22634;SDS011;11484;50.858;4.384;2023-09-07T09:55:35;3.50;;;2.92;;
22634;SDS011;11484;50.858;4.384;2023-09-07T09:58:01;6.68;;;3.88;;
22634;SDS011;11484;50.858;4.384;2023-09-07T10:00:27;5.10;;;3.30;;
22634;SDS011;11484;50.858;4.384;2023-09-07T10:06:09;4.85;;;2.90;;
22634;SDS011;11484;50.858;4.384;2023-09-07T10:08:36;4.65;;;3.50;;
22634;SDS011;11484;50.858;4.384;2023-09-07T10:11:07;3.60;;;2.80;;
22634;SDS011;11484;50.858;4.384;2023-09-07T10:13:36;5.35;;;3.10;;
22634;SDS011;11484;50.858;4.384;2023-09-07T10:16:02;4.60;;;3.28;;
22634;SDS011;11484;50.858;4.384;2023-09-07T10:18:34;4.32;;;2.90;;
22634;SDS011;11484;50.858;4.384;2023-09-07T10:21:00;4.32;;;3.65;;
22634;SDS011;11484;50.858;4.384;2023-09-07T10:23:44;3.97;;;3.10;;
22634;SDS011;11484;50.858;4.384;2023-09-07T10:26:11;3.90;;;3.05;;
22634;SDS011;11484;50.858;4.384;2023-09-07T10:28:37;5.47;;;3.00;;
22634;SDS011;11484;50.858;4.384;2023-09-07T10:31:20;6.70;;;3.30;;
22634;SDS011;11484;50.858;4.384;2023-09-07T10:33:50;5.63;;;3.67;;
22634;SDS011;11484;50.858;4.384;2023-09-07T10:36:20;6.03;;;3.85;;
22634;SDS011;11484;50.858;4.384;2023-09-07T10:38:50;5.13;;;3.35;;
22634;SDS011;11484;50.858;4.384;2023-09-07T10:41:19;4.82;;;3.78;;
22634;SDS011;11484;50.858;4.384;2023-09-07T10:43:50;7.55;;;3.67;;
22634;SDS011;11484;50.858;4.384;2023-09-07T10:46:20;5.35;;;3.42;;
22634;SDS011;11484;50.858;4.384;2023-09-07T10:48:52;4.50;;;3.30;;
22634;SDS011;11484;50.858;4.384;2023-09-07T10:51:19;7.88;;;3.58;;
22634;SDS011;11484;50.858;4.384;2023-09-07T10:53:45;5.00;;;3.65;;
22634;SDS011;11484;50.858;4.384;2023-09-07T10:56:11;3.70;;;3.25;;
22634;SDS011;11484;50.858;4.384;2023-09-07T10:58:37;7.47;;;3.47;;
22634;SDS011;11484;50.858;4.384;2023-09-07T11:01:05;6.30;;;3.58;;
22634;SDS011;11484;50.858;4.384;2023-09-07T11:03:34;4.50;;;3.10;;
22634;SDS011;11484;50.858;4.384;2023-09-07T11:06:12;3.90;;;2.88;;
22634;SDS011;11484;50.858;4.384;2023-09-07T11:08:52;4.63;;;3.08;;
22634;SDS011;11484;50.858;4.384;2023-09-07T11:11:18;5.25;;;3.60;;
22634;SDS011;11484;50.858;4.384;2023-09-07T11:13:50;4.47;;;3.08;;
22634;SDS011;11484;50.858;4.384;2023-09-07T11:16:19;3.67;;;3.17;;
22634;SDS011;11484;50.858;4.384;2023-09-07T11:18:45;7.65;;;3.50;;
22634;SDS011;11484;50.858;4.384;2023-09-07T11:21:20;4.82;;;3.03;;
22634;SDS011;11484;50.858;4.384;2023-09-07T11:23:46;4.32;;;3.33;;
22634;SDS011;11484;50.858;4.384;2023-09-07T11:26:14;4.88;;;3.17;;
22634;SDS011;11484;50.858;4.384;2023-09-07T11:28:47;6.80;;;3.40;;
22634;SDS011;11484;50.858;4.384;2023-09-07T11:31:12;4.57;;;3.13;;
22634;SDS011;11484;50.858;4.384;2023-09-07T11:33:40;4.70;;;3.40;;
22634;SDS011;11484;50.858;4.384;2023-09-07T11:36:06;6.47;;;3.50;;
22634;SDS011;11484;50.858;4.384;2023-09-07T11:38:36;3.70;;;2.92;;
22634;SDS011;11484;50.858;4.384;2023-09-07T11:41:03;3.88;;;2.72;;
22634;SDS011;11484;50.858;4.384;2023-09-07T11:43:30;4.25;;;3.25;;
22634;SDS011;11484;50.858;4.384;2023-09-07T11:45:56;4.88;;;3.17;;
22634;SDS011;11484;50.858;4.384;2023-09-07T11:48:22;4.15;;;2.80;;
22634;SDS011;11484;50.858;4.384;2023-09-07T11:50:52;4.43;;;2.97;;
22634;SDS011;11484;50.858;4.384;2023-09-07T11:53:17;9.18;;;3.30;;
22634;SDS011;11484;50.858;4.384;2023-09-07T11:55:43;4.20;;;2.80;;
22634;SDS011;11484;50.858;4.384;2023-09-07T11:58:09;5.05;;;3.17;;
22634;SDS011;11484;50.858;4.384;2023-09-07T12:00:36;5.45;;;2.72;;
22634;SDS011;11484;50.858;4.384;2023-09-07T12:03:05;4.40;;;2.80;;
22634;SDS011;11484;50.858;4.384;2023-09-07T12:05:30;4.85;;;3.00;;
22634;SDS011;11484;50.858;4.384;2023-09-07T12:07:59;3.97;;;2.80;;
22634;SDS011;11484;50.858;4.384;2023-09-07T12:10:25;5.30;;;2.88;;
22634;SDS011;11484;50.858;4.384;2023-09-07T12:12:52;3.85;;;2.72;;
22634;SDS011;11484;50.858;4.384;2023-09-07T12:15:17;4.78;;;2.92;;
22634;SDS011;11484;50.858;4.384;2023-09-07T12:17:43;3.88;;;3.30;;
22634;SDS011;11484;50.858;4.384;2023-09-07T12:20:09;3.88;;;2.92;;
22634;SDS011;11484;50.858;4.384;2023-09-07T12:22:36;3.65;;;2.95;;
22634;SDS011;11484;50.858;4.384;2023-09-07T12:25:04;3.90;;;2.92;;
22634;SDS011;11484;50.858;4.384;2023-09-07T12:27:35;3.60;;;2.60;;
22634;SDS011;11484;50.858;4.384;2023-09-07T12:30:02;4.60;;;3.08;;
22634;SDS011;11484;50.858;4.384;2023-09-07T12:32:31;5.13;;;3.20;;
22634;SDS011;11484;50.858;4.384;2023-09-07T12:34:57;4.35;;;2.85;;
22634;SDS011;11484;50.858;4.384;2023-09-07T12:37:24;4.70;;;2.95;;
22634;SDS011;11484;50.858;4.384;2023-09-07T12:39:50;4.95;;;2.90;;
22634;SDS011;11484;50.858;4.384;2023-09-07T12:42:16;5.20;;;3.13;;
22634;SDS011;11484;50.858;4.384;2023-09-07T12:44:43;4.00;;;3.30;;
22634;SDS011;11484;50.858;4.384;2023-09-07T12:47:09;4.15;;;3.10;;
22634;SDS011;11484;50.858;4.384;2023-09-07T12:49:35;7.93;;;3.20;;
22634;SDS011;11484;50.858;4.384;2023-09-07T12:52:00;5.03;;;3.30;;
22634;SDS011;11484;50.858;4.384;2023-09-07T12:54:29;3.63;;;3.10;;
22634;SDS011;11484;50.858;4.384;2023-09-07T12:56:54;6.65;;;3.25;;
22634;SDS011;11484;50.858;4.384;2023-09-07T12:59:20;4.63;;;3.30;;
22634;SDS011;11484;50.858;4.384;2023-09-07T13:01:47;11.63;;;3.53;;
22634;SDS011;11484;50.858;4.384;2023-09-07T13:04:14;22.23;;;3.95;;
22634;SDS011;11484;50.858;4.384;2023-09-07T13:06:39;4.53;;;3.13;;
22634;SDS011;11484;50.858;4.384;2023-09-07T13:09:06;16.15;;;3.65;;
22634;SDS011;11484;50.858;4.384;2023-09-07T13:11:34;4.18;;;3.58;;
22634;SDS011;11484;50.858;4.384;2023-09-07T13:14:02;11.45;;;3.55;;
22634;SDS011;11484;50.858;4.384;2023-09-07T13:16:28;10.18;;;3.60;;
22634;SDS011;11484;50.858;4.384;2023-09-07T13:18:53;8.40;;;3.17;;
22634;SDS011;11484;50.858;4.384;2023-09-07T13:21:19;11.15;;;3.47;;
22634;SDS011;11484;50.858;4.384;2023-09-07T13:23:45;8.07;;;3.60;;
22634;SDS011;11484;50.858;4.384;2023-09-07T13:26:12;19.63;;;4.30;;
22634;SDS011;11484;50.858;4.384;2023-09-07T13:28:37;28.73;;;5.03;;
22634;SDS011;11484;50.858;4.384;2023-09-07T13:31:03;16.10;;;4.10;;
22634;SDS011;11484;50.858;4.384;2023-09-07T13:33:29;6.70;;;3.50;;
22634;SDS011;11484;50.858;4.384;2023-09-07T13:35:55;3.95;;;3.25;;
22634;SDS011;11484;50.858;4.384;2023-09-07T13:38:20;4.78;;;3.17;;
22634;SDS011;11484;50.858;4.384;2023-09-07T13:40:47;6.93;;;3.40;;
22634;SDS011;11484;50.858;4.384;2023-09-07T13:43:13;5.30;;;3.40;;
22634;SDS011;11484;50.858;4.384;2023-09-07T13:45:40;6.90;;;3.25;;
22634;SDS011;11484;50.858;4.384;2023-09-07T13:48:06;5.63;;;3.53;;
22634;SDS011;11484;50.858;4.384;2023-09-07T13:50:32;4.03;;;3.15;;
22634;SDS011;11484;50.858;4.384;2023-09-07T13:52:57;12.48;;;4.40;;
22634;SDS011;11484;50.858;4.384;2023-09-07T13:55:24;5.03;;;3.67;;
22634;SDS011;11484;50.858;4.384;2023-09-07T13:57:50;10.20;;;4.00;;
22634;SDS011;11484;50.858;4.384;2023-09-07T14:00:16;9.90;;;3.60;;
22634;SDS011;11484;50.858;4.384;2023-09-07T14:02:42;16.55;;;4.30;;
22634;SDS011;11484;50.858;4.384;2023-09-07T14:05:09;22.35;;;4.20;;
22634;SDS011;11484;50.858;4.384;2023-09-07T14:07:35;19.55;;;4.80;;
22634;SDS011;11484;50.858;4.384;2023-09-07T14:10:01;5.80;;;3.45;;
22634;SDS011;11484;50.858;4.384;2023-09-07T14:12:29;20.85;;;3.95;;
22634;SDS011;11484;50.858;4.384;2023-09-07T14:14:56;18.92;;;3.60;;
22634;SDS011;11484;50.858;4.384;2023-09-07T14:17:23;4.32;;;2.97;;
22634;SDS011;11484;50.858;4.384;2023-09-07T14:19:52;5.75;;;3.38;;
22634;SDS011;11484;50.858;4.384;2023-09-07T14:22:17;5.57;;;3.28;;
22634;SDS011;11484;50.858;4.384;2023-09-07T14:24:43;6.93;;;3.63;;
22634;SDS011;11484;50.858;4.384;2023-09-07T14:27:09;3.65;;;2.58;;
22634;SDS011;11484;50.858;4.384;2023-09-07T14:29:35;7.95;;;3.50;;
22634;SDS011;11484;50.858;4.384;2023-09-07T14:32:01;4.95;;;3.55;;
22634;SDS011;11484;50.858;4.384;2023-09-07T14:34:28;4.28;;;3.25;;
22634;SDS011;11484;50.858;4.384;2023-09-07T14:36:54;4.43;;;2.92;;
22634;SDS011;11484;50.858;4.384;2023-09-07T14:39:20;4.18;;;3.08;;
22634;SDS011;11484;50.858;4.384;2023-09-07T14:41:49;4.55;;;2.85;;
22634;SDS011;11484;50.858;4.384;2023-09-07T14:44:15;3.95;;;2.88;;
22634;SDS011;11484;50.858;4.384;2023-09-07T14:46:41;7.65;;;3.38;;